sensor_id;sensor_type;location;lat;lon;timestamp;temperature;humidity
17740;DHT22;8990;33.226;-97.150;2022-07-29T00:00:47;38.00;91.80
17740;DHT22;8990;33.226;-97.150;2022-07-29T00:03:17;38.00;91.60
17740;DHT22;8990;33.226;-97.150;2022-07-29T00:05:46;37.90;91.40
17740;DHT22;8990;33.226;-97.150;2022-07-29T00:08:15;37.70;91.50
17740;DHT22;8990;33.226;-97.150;2022-07-29T00:10:44;37.60;91.80
17740;DHT22;8990;33.226;-97.150;2022-07-29T00:13:15;37.60;91.60
17740;DHT22;8990;33.226;-97.150;2022-07-29T00:15:44;37.50;91.60
17740;DHT22;8990;33.226;-97.150;2022-07-29T00:18:14;37.50;91.70
17740;DHT22;8990;33.226;-97.150;2022-07-29T00:20:43;37.50;91.60
17740;DHT22;8990;33.226;-97.150;2022-07-29T00:23:13;37.40;91.70
17740;DHT22;8990;33.226;-97.150;2022-07-29T00:25:41;37.50;91.50
17740;DHT22;8990;33.226;-97.150;2022-07-29T00:28:11;37.50;91.50
17740;DHT22;8990;33.226;-97.150;2022-07-29T00:30:41;37.40;91.70
17740;DHT22;8990;33.226;-97.150;2022-07-29T00:33:11;37.40;91.70
17740;DHT22;8990;33.226;-97.150;2022-07-29T00:35:40;37.20;91.70
17740;DHT22;8990;33.226;-97.150;2022-07-29T00:38:12;37.20;91.70
17740;DHT22;8990;33.226;-97.150;2022-07-29T00:40:42;37.20;91.70
17740;DHT22;8990;33.226;-97.150;2022-07-29T00:43:12;37.10;91.80
17740;DHT22;8990;33.226;-97.150;2022-07-29T00:45:42;37.10;91.70
17740;DHT22;8990;33.226;-97.150;2022-07-29T00:48:12;37.10;91.70
17740;DHT22;8990;33.226;-97.150;2022-07-29T00:50:41;37.10;91.70
17740;DHT22;8990;33.226;-97.150;2022-07-29T00:53:12;36.90;91.60
17740;DHT22;8990;33.226;-97.150;2022-07-29T00:55:41;36.90;91.80
17740;DHT22;8990;33.226;-97.150;2022-07-29T00:58:12;36.90;91.90
17740;DHT22;8990;33.226;-97.150;2022-07-29T01:00:43;36.90;91.90
17740;DHT22;8990;33.226;-97.150;2022-07-29T01:03:13;36.90;91.80
17740;DHT22;8990;33.226;-97.150;2022-07-29T01:05:42;36.80;91.70
17740;DHT22;8990;33.226;-97.150;2022-07-29T01:08:15;36.90;91.80
17740;DHT22;8990;33.226;-97.150;2022-07-29T01:10:46;36.80;91.80
17740;DHT22;8990;33.226;-97.150;2022-07-29T01:13:16;36.70;91.80
17740;DHT22;8990;33.226;-97.150;2022-07-29T01:15:51;36.70;92.20
17740;DHT22;8990;33.226;-97.150;2022-07-29T01:18:24;36.60;92.00
17740;DHT22;8990;33.226;-97.150;2022-07-29T01:21:23;36.60;92.00
17740;DHT22;8990;33.226;-97.150;2022-07-29T01:24:20;36.60;92.10
17740;DHT22;8990;33.226;-97.150;2022-07-29T01:27:06;36.50;92.20
17740;DHT22;8990;33.226;-97.150;2022-07-29T01:29:49;36.50;92.20
17740;DHT22;8990;33.226;-97.150;2022-07-29T01:32:27;36.40;92.20
17740;DHT22;8990;33.226;-97.150;2022-07-29T01:35:02;36.40;92.10
17740;DHT22;8990;33.226;-97.150;2022-07-29T01:37:38;36.40;92.20
17740;DHT22;8990;33.226;-97.150;2022-07-29T01:40:14;36.30;92.30
17740;DHT22;8990;33.226;-97.150;2022-07-29T01:42:50;36.20;92.30
17740;DHT22;8990;33.226;-97.150;2022-07-29T01:45:26;36.20;92.30
17740;DHT22;8990;33.226;-97.150;2022-07-29T01:48:02;36.20;92.40
17740;DHT22;8990;33.226;-97.150;2022-07-29T01:50:35;36.20;92.40
17740;DHT22;8990;33.226;-97.150;2022-07-29T01:53:09;36.20;92.40
17740;DHT22;8990;33.226;-97.150;2022-07-29T01:55:41;36.10;92.40
17740;DHT22;8990;33.226;-97.150;2022-07-29T01:58:11;36.10;92.50
17740;DHT22;8990;33.226;-97.150;2022-07-29T02:00:45;36.00;92.40
17740;DHT22;8990;33.226;-97.150;2022-07-29T02:03:18;36.00;92.50
17740;DHT22;8990;33.226;-97.150;2022-07-29T02:05:48;35.90;92.60
17740;DHT22;8990;33.226;-97.150;2022-07-29T02:08:19;35.90;92.50
17740;DHT22;8990;33.226;-97.150;2022-07-29T02:10:50;35.90;92.60
17740;DHT22;8990;33.226;-97.150;2022-07-29T02:13:23;35.80;92.60
17740;DHT22;8990;33.226;-97.150;2022-07-29T02:15:56;35.70;92.70
17740;DHT22;8990;33.226;-97.150;2022-07-29T02:18:28;35.70;92.80
17740;DHT22;8990;33.226;-97.150;2022-07-29T02:21:00;35.70;92.80
17740;DHT22;8990;33.226;-97.150;2022-07-29T02:23:31;35.60;92.90
17740;DHT22;8990;33.226;-97.150;2022-07-29T02:26:01;35.50;92.90
17740;DHT22;8990;33.226;-97.150;2022-07-29T02:28:31;35.50;93.00
17740;DHT22;8990;33.226;-97.150;2022-07-29T02:31:03;35.40;93.10
17740;DHT22;8990;33.226;-97.150;2022-07-29T02:33:34;35.40;93.00
17740;DHT22;8990;33.226;-97.150;2022-07-29T02:36:04;35.30;93.10
17740;DHT22;8990;33.226;-97.150;2022-07-29T02:38:35;35.30;93.10
17740;DHT22;8990;33.226;-97.150;2022-07-29T02:41:24;35.20;93.10
17740;DHT22;8990;33.226;-97.150;2022-07-29T02:43:57;35.20;93.20
17740;DHT22;8990;33.226;-97.150;2022-07-29T02:46:31;35.10;93.20
17740;DHT22;8990;33.226;-97.150;2022-07-29T02:49:07;35.10;93.20
17740;DHT22;8990;33.226;-97.150;2022-07-29T02:51:43;35.00;93.20
17740;DHT22;8990;33.226;-97.150;2022-07-29T02:54:21;35.00;93.30
17740;DHT22;8990;33.226;-97.150;2022-07-29T02:56:52;35.00;93.30
17740;DHT22;8990;33.226;-97.150;2022-07-29T02:59:26;35.00;93.30
17740;DHT22;8990;33.226;-97.150;2022-07-29T03:01:58;35.00;93.40
17740;DHT22;8990;33.226;-97.150;2022-07-29T03:04:31;34.90;93.50
17740;DHT22;8990;33.226;-97.150;2022-07-29T03:07:01;34.90;93.50
17740;DHT22;8990;33.226;-97.150;2022-07-29T03:09:32;34.90;93.60
17740;DHT22;8990;33.226;-97.150;2022-07-29T03:12:04;34.80;93.60
17740;DHT22;8990;33.226;-97.150;2022-07-29T03:14:34;34.80;93.70
17740;DHT22;8990;33.226;-97.150;2022-07-29T03:17:06;34.70;93.80
17740;DHT22;8990;33.226;-97.150;2022-07-29T03:19:36;34.70;93.80
17740;DHT22;8990;33.226;-97.150;2022-07-29T03:22:05;34.70;93.90
17740;DHT22;8990;33.226;-97.150;2022-07-29T03:24:35;34.60;94.10
17740;DHT22;8990;33.226;-97.150;2022-07-29T03:27:05;34.50;94.10
17740;DHT22;8990;33.226;-97.150;2022-07-29T03:29:35;34.50;94.20
17740;DHT22;8990;33.226;-97.150;2022-07-29T03:32:07;34.50;94.20
17740;DHT22;8990;33.226;-97.150;2022-07-29T03:34:37;34.40;94.30
17740;DHT22;8990;33.226;-97.150;2022-07-29T03:37:07;34.30;94.30
17740;DHT22;8990;33.226;-97.150;2022-07-29T03:39:40;34.30;94.40
17740;DHT22;8990;33.226;-97.150;2022-07-29T03:42:11;34.30;94.60
17740;DHT22;8990;33.226;-97.150;2022-07-29T03:44:45;34.20;94.60
17740;DHT22;8990;33.226;-97.150;2022-07-29T03:47:22;34.10;94.70
17740;DHT22;8990;33.226;-97.150;2022-07-29T03:49:57;34.10;94.70
17740;DHT22;8990;33.226;-97.150;2022-07-29T03:52:28;34.00;94.80
17740;DHT22;8990;33.226;-97.150;2022-07-29T03:54:57;34.10;94.70
17740;DHT22;8990;33.226;-97.150;2022-07-29T03:57:28;34.10;94.80
17740;DHT22;8990;33.226;-97.150;2022-07-29T03:59:58;34.00;94.90
17740;DHT22;8990;33.226;-97.150;2022-07-29T04:02:32;33.90;94.90
17740;DHT22;8990;33.226;-97.150;2022-07-29T04:05:03;33.90;95.00
17740;DHT22;8990;33.226;-97.150;2022-07-29T04:07:33;33.90;95.10
17740;DHT22;8990;33.226;-97.150;2022-07-29T04:10:02;33.80;95.00
17740;DHT22;8990;33.226;-97.150;2022-07-29T04:12:31;33.80;95.10
17740;DHT22;8990;33.226;-97.150;2022-07-29T04:15:00;33.70;95.10
17740;DHT22;8990;33.226;-97.150;2022-07-29T04:17:31;33.80;95.10
17740;DHT22;8990;33.226;-97.150;2022-07-29T04:20:01;33.70;95.60
17740;DHT22;8990;33.226;-97.150;2022-07-29T04:22:30;33.60;95.30
17740;DHT22;8990;33.226;-97.150;2022-07-29T04:24:59;33.60;95.40
17740;DHT22;8990;33.226;-97.150;2022-07-29T04:27:28;33.60;95.40
17740;DHT22;8990;33.226;-97.150;2022-07-29T04:29:58;33.60;95.40
17740;DHT22;8990;33.226;-97.150;2022-07-29T04:32:28;33.50;95.50
17740;DHT22;8990;33.226;-97.150;2022-07-29T04:34:59;33.50;95.50
17740;DHT22;8990;33.226;-97.150;2022-07-29T04:37:28;33.50;95.60
17740;DHT22;8990;33.226;-97.150;2022-07-29T04:39:57;33.40;95.60
17740;DHT22;8990;33.226;-97.150;2022-07-29T04:42:27;33.40;95.70
17740;DHT22;8990;33.226;-97.150;2022-07-29T04:44:56;33.30;95.80
17740;DHT22;8990;33.226;-97.150;2022-07-29T04:47:26;33.20;95.90
17740;DHT22;8990;33.226;-97.150;2022-07-29T04:49:55;33.20;95.80
17740;DHT22;8990;33.226;-97.150;2022-07-29T04:52:27;33.20;95.80
17740;DHT22;8990;33.226;-97.150;2022-07-29T04:54:56;33.10;95.90
17740;DHT22;8990;33.226;-97.150;2022-07-29T04:57:25;33.10;96.00
17740;DHT22;8990;33.226;-97.150;2022-07-29T04:59:54;33.10;96.00
17740;DHT22;8990;33.226;-97.150;2022-07-29T05:02:23;33.10;96.00
17740;DHT22;8990;33.226;-97.150;2022-07-29T05:04:53;33.10;96.00
17740;DHT22;8990;33.226;-97.150;2022-07-29T05:07:22;33.00;96.00
17740;DHT22;8990;33.226;-97.150;2022-07-29T05:09:53;33.00;96.10
17740;DHT22;8990;33.226;-97.150;2022-07-29T05:12:24;33.00;96.10
17740;DHT22;8990;33.226;-97.150;2022-07-29T05:14:53;33.00;96.10
17740;DHT22;8990;33.226;-97.150;2022-07-29T05:17:23;33.00;96.10
17740;DHT22;8990;33.226;-97.150;2022-07-29T05:19:52;32.90;96.20
17740;DHT22;8990;33.226;-97.150;2022-07-29T05:22:21;32.90;96.20
17740;DHT22;8990;33.226;-97.150;2022-07-29T05:24:53;32.90;96.30
17740;DHT22;8990;33.226;-97.150;2022-07-29T05:27:22;32.80;96.40
17740;DHT22;8990;33.226;-97.150;2022-07-29T05:29:51;32.80;96.40
17740;DHT22;8990;33.226;-97.150;2022-07-29T05:32:21;32.80;96.50
17740;DHT22;8990;33.226;-97.150;2022-07-29T05:34:50;32.80;96.50
17740;DHT22;8990;33.226;-97.150;2022-07-29T05:37:19;32.70;96.50
17740;DHT22;8990;33.226;-97.150;2022-07-29T05:39:49;32.60;96.60
17740;DHT22;8990;33.226;-97.150;2022-07-29T05:42:19;32.70;96.70
17740;DHT22;8990;33.226;-97.150;2022-07-29T05:44:49;32.70;96.50
17740;DHT22;8990;33.226;-97.150;2022-07-29T05:47:19;32.70;96.60
17740;DHT22;8990;33.226;-97.150;2022-07-29T05:49:48;32.70;96.60
17740;DHT22;8990;33.226;-97.150;2022-07-29T05:52:18;32.60;96.70
17740;DHT22;8990;33.226;-97.150;2022-07-29T05:54:47;32.60;96.80
17740;DHT22;8990;33.226;-97.150;2022-07-29T05:57:18;32.60;96.90
17740;DHT22;8990;33.226;-97.150;2022-07-29T05:59:48;32.50;97.10
17740;DHT22;8990;33.226;-97.150;2022-07-29T06:02:18;32.40;97.30
17740;DHT22;8990;33.226;-97.150;2022-07-29T06:04:47;32.30;97.40
17740;DHT22;8990;33.226;-97.150;2022-07-29T06:07:17;32.20;97.60
17740;DHT22;8990;33.226;-97.150;2022-07-29T06:09:46;32.30;98.10
17740;DHT22;8990;33.226;-97.150;2022-07-29T06:12:15;32.20;97.90
17740;DHT22;8990;33.226;-97.150;2022-07-29T06:14:45;32.20;98.00
17740;DHT22;8990;33.226;-97.150;2022-07-29T06:17:16;32.10;98.30
17740;DHT22;8990;33.226;-97.150;2022-07-29T06:19:45;32.10;98.40
17740;DHT22;8990;33.226;-97.150;2022-07-29T06:22:16;32.00;98.60
17740;DHT22;8990;33.226;-97.150;2022-07-29T06:24:45;32.00;98.80
17740;DHT22;8990;33.226;-97.150;2022-07-29T06:27:15;31.90;99.00
17740;DHT22;8990;33.226;-97.150;2022-07-29T06:29:47;31.80;99.10
17740;DHT22;8990;33.226;-97.150;2022-07-29T06:32:16;31.70;99.50
17740;DHT22;8990;33.226;-97.150;2022-07-29T06:34:46;31.80;99.30
17740;DHT22;8990;33.226;-97.150;2022-07-29T06:37:15;31.70;99.50
17740;DHT22;8990;33.226;-97.150;2022-07-29T06:39:45;31.70;99.60
17740;DHT22;8990;33.226;-97.150;2022-07-29T06:42:14;31.70;99.80
17740;DHT22;8990;33.226;-97.150;2022-07-29T06:44:43;31.70;99.90
17740;DHT22;8990;33.226;-97.150;2022-07-29T06:47:14;31.60;99.90
17740;DHT22;8990;33.226;-97.150;2022-07-29T06:49:43;31.50;99.90
17740;DHT22;8990;33.226;-97.150;2022-07-29T06:52:13;31.40;99.90
17740;DHT22;8990;33.226;-97.150;2022-07-29T06:54:43;31.50;99.90
17740;DHT22;8990;33.226;-97.150;2022-07-29T06:57:14;31.40;99.90
17740;DHT22;8990;33.226;-97.150;2022-07-29T06:59:44;31.40;99.90
17740;DHT22;8990;33.226;-97.150;2022-07-29T07:02:15;31.40;99.90
17740;DHT22;8990;33.226;-97.150;2022-07-29T07:04:44;31.40;99.90
17740;DHT22;8990;33.226;-97.150;2022-07-29T07:07:13;31.30;99.90
17740;DHT22;8990;33.226;-97.150;2022-07-29T07:09:43;31.20;99.90
17740;DHT22;8990;33.226;-97.150;2022-07-29T07:12:12;31.20;99.90
17740;DHT22;8990;33.226;-97.150;2022-07-29T07:14:42;31.10;99.90
17740;DHT22;8990;33.226;-97.150;2022-07-29T07:17:11;31.20;99.90
17740;DHT22;8990;33.226;-97.150;2022-07-29T07:19:42;31.10;99.90
17740;DHT22;8990;33.226;-97.150;2022-07-29T07:22:12;31.10;99.90
17740;DHT22;8990;33.226;-97.150;2022-07-29T07:24:42;31.00;99.90
17740;DHT22;8990;33.226;-97.150;2022-07-29T07:27:11;30.90;99.90
17740;DHT22;8990;33.226;-97.150;2022-07-29T07:29:41;30.90;99.90
17740;DHT22;8990;33.226;-97.150;2022-07-29T07:32:10;30.90;99.90
17740;DHT22;8990;33.226;-97.150;2022-07-29T07:34:41;30.90;99.90
17740;DHT22;8990;33.226;-97.150;2022-07-29T07:37:10;30.90;99.90
17740;DHT22;8990;33.226;-97.150;2022-07-29T07:39:41;30.80;99.90
17740;DHT22;8990;33.226;-97.150;2022-07-29T07:42:10;30.80;99.90
17740;DHT22;8990;33.226;-97.150;2022-07-29T07:44:40;30.80;99.90
17740;DHT22;8990;33.226;-97.150;2022-07-29T07:47:10;30.80;99.90
17740;DHT22;8990;33.226;-97.150;2022-07-29T07:49:41;30.70;99.90
17740;DHT22;8990;33.226;-97.150;2022-07-29T07:52:10;30.70;99.90
17740;DHT22;8990;33.226;-97.150;2022-07-29T07:54:40;30.60;99.90
17740;DHT22;8990;33.226;-97.150;2022-07-29T07:57:10;30.60;99.90
17740;DHT22;8990;33.226;-97.150;2022-07-29T07:59:39;30.60;99.90
17740;DHT22;8990;33.226;-97.150;2022-07-29T08:02:09;30.60;99.90
17740;DHT22;8990;33.226;-97.150;2022-07-29T08:04:38;30.50;99.90
17740;DHT22;8990;33.226;-97.150;2022-07-29T08:07:09;30.50;99.90
17740;DHT22;8990;33.226;-97.150;2022-07-29T08:09:38;30.30;99.90
17740;DHT22;8990;33.226;-97.150;2022-07-29T08:12:07;30.30;99.90
17740;DHT22;8990;33.226;-97.150;2022-07-29T08:14:38;30.30;99.90
17740;DHT22;8990;33.226;-97.150;2022-07-29T08:17:08;30.40;99.90
17740;DHT22;8990;33.226;-97.150;2022-07-29T08:19:37;30.40;99.90
17740;DHT22;8990;33.226;-97.150;2022-07-29T08:22:06;30.40;99.90
17740;DHT22;8990;33.226;-97.150;2022-07-29T08:24:36;30.30;99.90
17740;DHT22;8990;33.226;-97.150;2022-07-29T08:27:14;30.30;99.90
17740;DHT22;8990;33.226;-97.150;2022-07-29T08:29:44;30.20;99.90
17740;DHT22;8990;33.226;-97.150;2022-07-29T08:32:13;30.20;99.90
17740;DHT22;8990;33.226;-97.150;2022-07-29T08:34:43;30.10;99.90
17740;DHT22;8990;33.226;-97.150;2022-07-29T08:37:13;30.10;99.90
17740;DHT22;8990;33.226;-97.150;2022-07-29T08:39:44;30.10;99.90
17740;DHT22;8990;33.226;-97.150;2022-07-29T08:42:13;30.10;99.90
17740;DHT22;8990;33.226;-97.150;2022-07-29T08:44:44;30.00;99.90
17740;DHT22;8990;33.226;-97.150;2022-07-29T08:47:14;30.00;99.90
17740;DHT22;8990;33.226;-97.150;2022-07-29T08:49:43;30.00;99.90
17740;DHT22;8990;33.226;-97.150;2022-07-29T08:52:15;30.00;99.90
17740;DHT22;8990;33.226;-97.150;2022-07-29T08:54:46;30.00;99.90
17740;DHT22;8990;33.226;-97.150;2022-07-29T08:57:17;29.90;99.90
17740;DHT22;8990;33.226;-97.150;2022-07-29T08:59:50;29.90;99.90
17740;DHT22;8990;33.226;-97.150;2022-07-29T09:02:22;30.00;99.90
17740;DHT22;8990;33.226;-97.150;2022-07-29T09:04:52;29.80;99.90
17740;DHT22;8990;33.226;-97.150;2022-07-29T09:07:20;29.80;99.90
17740;DHT22;8990;33.226;-97.150;2022-07-29T09:09:52;29.80;99.90
17740;DHT22;8990;33.226;-97.150;2022-07-29T09:12:23;29.80;99.90
17740;DHT22;8990;33.226;-97.150;2022-07-29T09:14:52;29.80;99.90
17740;DHT22;8990;33.226;-97.150;2022-07-29T09:17:41;29.70;99.90
17740;DHT22;8990;33.226;-97.150;2022-07-29T09:20:12;29.70;99.90
17740;DHT22;8990;33.226;-97.150;2022-07-29T09:22:43;29.70;99.90
17740;DHT22;8990;33.226;-97.150;2022-07-29T09:25:33;29.70;99.90
17740;DHT22;8990;33.226;-97.150;2022-07-29T09:28:10;29.80;99.90
17740;DHT22;8990;33.226;-97.150;2022-07-29T09:30:50;29.70;99.90
17740;DHT22;8990;33.226;-97.150;2022-07-29T09:33:21;29.60;99.90
17740;DHT22;8990;33.226;-97.150;2022-07-29T09:36:00;29.60;99.90
17740;DHT22;8990;33.226;-97.150;2022-07-29T09:38:32;29.60;99.90
17740;DHT22;8990;33.226;-97.150;2022-07-29T09:41:05;29.50;99.90
17740;DHT22;8990;33.226;-97.150;2022-07-29T09:43:36;29.50;99.90
17740;DHT22;8990;33.226;-97.150;2022-07-29T09:46:10;29.60;99.90
17740;DHT22;8990;33.226;-97.150;2022-07-29T09:48:40;29.50;99.90
17740;DHT22;8990;33.226;-97.150;2022-07-29T09:51:17;29.50;99.90
17740;DHT22;8990;33.226;-97.150;2022-07-29T09:53:47;29.40;99.90
17740;DHT22;8990;33.226;-97.150;2022-07-29T09:56:18;29.40;99.90
17740;DHT22;8990;33.226;-97.150;2022-07-29T09:59:05;29.40;99.90
17740;DHT22;8990;33.226;-97.150;2022-07-29T10:01:34;29.40;99.90
17740;DHT22;8990;33.226;-97.150;2022-07-29T10:04:04;29.30;99.90
17740;DHT22;8990;33.226;-97.150;2022-07-29T10:06:33;29.30;99.90
17740;DHT22;8990;33.226;-97.150;2022-07-29T10:09:08;29.30;99.90
17740;DHT22;8990;33.226;-97.150;2022-07-29T10:11:39;29.20;99.90
17740;DHT22;8990;33.226;-97.150;2022-07-29T10:14:09;29.20;99.90
17740;DHT22;8990;33.226;-97.150;2022-07-29T10:16:38;29.20;99.90
17740;DHT22;8990;33.226;-97.150;2022-07-29T10:19:10;29.10;99.90
17740;DHT22;8990;33.226;-97.150;2022-07-29T10:21:39;29.10;99.90
17740;DHT22;8990;33.226;-97.150;2022-07-29T10:24:11;29.00;99.90
17740;DHT22;8990;33.226;-97.150;2022-07-29T10:26:42;29.00;99.90
17740;DHT22;8990;33.226;-97.150;2022-07-29T10:29:13;29.10;99.90
17740;DHT22;8990;33.226;-97.150;2022-07-29T10:31:47;29.10;99.90
17740;DHT22;8990;33.226;-97.150;2022-07-29T10:34:27;29.10;99.90
17740;DHT22;8990;33.226;-97.150;2022-07-29T10:37:11;29.10;99.90
17740;DHT22;8990;33.226;-97.150;2022-07-29T10:39:54;29.10;99.90
17740;DHT22;8990;33.226;-97.150;2022-07-29T10:42:29;29.00;99.90
17740;DHT22;8990;33.226;-97.150;2022-07-29T10:44:59;29.10;99.90
17740;DHT22;8990;33.226;-97.150;2022-07-29T10:47:29;29.00;99.90
17740;DHT22;8990;33.226;-97.150;2022-07-29T10:49:58;29.00;99.90
17740;DHT22;8990;33.226;-97.150;2022-07-29T10:52:53;29.00;99.90
17740;DHT22;8990;33.226;-97.150;2022-07-29T10:55:41;29.00;99.90
17740;DHT22;8990;33.226;-97.150;2022-07-29T10:58:16;29.00;99.90
17740;DHT22;8990;33.226;-97.150;2022-07-29T11:00:46;28.90;99.90
17740;DHT22;8990;33.226;-97.150;2022-07-29T11:03:43;28.90;99.90
17740;DHT22;8990;33.226;-97.150;2022-07-29T11:06:13;28.80;99.90
17740;DHT22;8990;33.226;-97.150;2022-07-29T11:08:42;28.90;99.90
17740;DHT22;8990;33.226;-97.150;2022-07-29T11:11:35;28.90;99.90
17740;DHT22;8990;33.226;-97.150;2022-07-29T11:14:09;28.80;99.90
17740;DHT22;8990;33.226;-97.150;2022-07-29T11:17:00;28.80;99.90
17740;DHT22;8990;33.226;-97.150;2022-07-29T11:19:31;28.80;99.90
17740;DHT22;8990;33.226;-97.150;2022-07-29T11:22:00;28.80;99.90
17740;DHT22;8990;33.226;-97.150;2022-07-29T11:24:30;28.80;99.90
17740;DHT22;8990;33.226;-97.150;2022-07-29T11:27:13;28.70;99.90
17740;DHT22;8990;33.226;-97.150;2022-07-29T11:29:54;28.70;99.90
17740;DHT22;8990;33.226;-97.150;2022-07-29T11:32:35;28.70;99.90
17740;DHT22;8990;33.226;-97.150;2022-07-29T11:35:16;28.60;99.90
17740;DHT22;8990;33.226;-97.150;2022-07-29T11:38:23;28.60;99.90
17740;DHT22;8990;33.226;-97.150;2022-07-29T11:40:36;28.60;99.90
17740;DHT22;8990;33.226;-97.150;2022-07-29T11:43:05;28.60;99.90
17740;DHT22;8990;33.226;-97.150;2022-07-29T11:45:47;28.60;99.90
17740;DHT22;8990;33.226;-97.150;2022-07-29T11:48:17;28.60;99.90
17740;DHT22;8990;33.226;-97.150;2022-07-29T11:50:46;28.50;99.90
17740;DHT22;8990;33.226;-97.150;2022-07-29T11:53:16;28.60;99.90
17740;DHT22;8990;33.226;-97.150;2022-07-29T11:55:48;28.60;99.90
17740;DHT22;8990;33.226;-97.150;2022-07-29T11:58:23;28.60;99.90
17740;DHT22;8990;33.226;-97.150;2022-07-29T12:00:54;28.60;99.90
17740;DHT22;8990;33.226;-97.150;2022-07-29T12:03:25;28.60;99.90
17740;DHT22;8990;33.226;-97.150;2022-07-29T12:05:55;28.60;99.90
17740;DHT22;8990;33.226;-97.150;2022-07-29T12:08:25;28.50;99.90
17740;DHT22;8990;33.226;-97.150;2022-07-29T12:10:54;28.60;99.90
17740;DHT22;8990;33.226;-97.150;2022-07-29T12:13:24;28.60;99.90
17740;DHT22;8990;33.226;-97.150;2022-07-29T12:15:55;28.60;99.90
17740;DHT22;8990;33.226;-97.150;2022-07-29T12:18:27;28.60;99.90
17740;DHT22;8990;33.226;-97.150;2022-07-29T12:20:59;28.60;99.90
17740;DHT22;8990;33.226;-97.150;2022-07-29T12:23:30;28.70;99.90
17740;DHT22;8990;33.226;-97.150;2022-07-29T12:25:59;28.70;99.90
17740;DHT22;8990;33.226;-97.150;2022-07-29T12:28:29;28.70;99.90
17740;DHT22;8990;33.226;-97.150;2022-07-29T12:30:59;28.80;99.90
17740;DHT22;8990;33.226;-97.150;2022-07-29T12:33:29;28.80;99.90
17740;DHT22;8990;33.226;-97.150;2022-07-29T12:36:02;28.90;99.90
17740;DHT22;8990;33.226;-97.150;2022-07-29T12:38:32;29.00;99.90
17740;DHT22;8990;33.226;-97.150;2022-07-29T12:41:02;29.10;99.90
17740;DHT22;8990;33.226;-97.150;2022-07-29T12:43:32;29.10;99.90
17740;DHT22;8990;33.226;-97.150;2022-07-29T12:46:14;29.10;99.90
17740;DHT22;8990;33.226;-97.150;2022-07-29T12:48:44;29.30;99.90
17740;DHT22;8990;33.226;-97.150;2022-07-29T12:51:13;29.60;99.90
17740;DHT22;8990;33.226;-97.150;2022-07-29T12:54:02;30.00;99.90
17740;DHT22;8990;33.226;-97.150;2022-07-29T12:56:31;30.10;99.90
17740;DHT22;8990;33.226;-97.150;2022-07-29T12:59:00;30.00;99.90
17740;DHT22;8990;33.226;-97.150;2022-07-29T13:01:41;29.90;99.90
17740;DHT22;8990;33.226;-97.150;2022-07-29T13:04:10;29.90;99.90
17740;DHT22;8990;33.226;-97.150;2022-07-29T13:06:41;29.80;99.90
17740;DHT22;8990;33.226;-97.150;2022-07-29T13:09:12;29.90;99.90
17740;DHT22;8990;33.226;-97.150;2022-07-29T13:11:43;29.90;99.90
17740;DHT22;8990;33.226;-97.150;2022-07-29T13:14:20;30.10;99.90
17740;DHT22;8990;33.226;-97.150;2022-07-29T13:17:04;30.10;99.90
17740;DHT22;8990;33.226;-97.150;2022-07-29T13:19:35;30.00;99.90
17740;DHT22;8990;33.226;-97.150;2022-07-29T13:22:07;30.10;99.90
17740;DHT22;8990;33.226;-97.150;2022-07-29T13:24:46;30.20;99.90
17740;DHT22;8990;33.226;-97.150;2022-07-29T13:27:16;30.40;99.90
17740;DHT22;8990;33.226;-97.150;2022-07-29T13:29:46;30.60;99.90
17740;DHT22;8990;33.226;-97.150;2022-07-29T13:32:18;30.70;99.90
17740;DHT22;8990;33.226;-97.150;2022-07-29T13:34:53;30.90;99.90
17740;DHT22;8990;33.226;-97.150;2022-07-29T13:37:26;31.00;99.90
17740;DHT22;8990;33.226;-97.150;2022-07-29T13:40:00;31.20;99.90
17740;DHT22;8990;33.226;-97.150;2022-07-29T13:42:35;31.30;99.90
17740;DHT22;8990;33.226;-97.150;2022-07-29T13:45:05;31.40;99.90
17740;DHT22;8990;33.226;-97.150;2022-07-29T13:47:37;31.50;99.90
17740;DHT22;8990;33.226;-97.150;2022-07-29T13:50:07;31.60;99.90
17740;DHT22;8990;33.226;-97.150;2022-07-29T13:52:39;31.70;99.90
17740;DHT22;8990;33.226;-97.150;2022-07-29T13:55:34;31.80;99.90
17740;DHT22;8990;33.226;-97.150;2022-07-29T13:58:03;31.90;99.90
17740;DHT22;8990;33.226;-97.150;2022-07-29T14:00:33;32.10;99.90
17740;DHT22;8990;33.226;-97.150;2022-07-29T14:03:13;32.10;99.90
17740;DHT22;8990;33.226;-97.150;2022-07-29T14:05:48;32.30;99.90
17740;DHT22;8990;33.226;-97.150;2022-07-29T14:08:22;32.40;99.90
17740;DHT22;8990;33.226;-97.150;2022-07-29T14:10:53;32.50;99.90
17740;DHT22;8990;33.226;-97.150;2022-07-29T14:13:22;32.50;99.90
17740;DHT22;8990;33.226;-97.150;2022-07-29T14:15:52;32.60;99.90
17740;DHT22;8990;33.226;-97.150;2022-07-29T14:18:25;32.80;99.90
17740;DHT22;8990;33.226;-97.150;2022-07-29T14:20:55;32.80;99.90
17740;DHT22;8990;33.226;-97.150;2022-07-29T14:23:25;32.90;99.90
17740;DHT22;8990;33.226;-97.150;2022-07-29T14:25:57;33.00;99.90
17740;DHT22;8990;33.226;-97.150;2022-07-29T14:28:41;33.20;99.90
17740;DHT22;8990;33.226;-97.150;2022-07-29T14:31:13;33.30;99.90
17740;DHT22;8990;33.226;-97.150;2022-07-29T14:33:45;33.40;99.90
17740;DHT22;8990;33.226;-97.150;2022-07-29T14:36:15;33.30;99.90
17740;DHT22;8990;33.226;-97.150;2022-07-29T14:38:45;33.40;99.90
17740;DHT22;8990;33.226;-97.150;2022-07-29T14:41:14;33.40;99.90
17740;DHT22;8990;33.226;-97.150;2022-07-29T14:43:45;33.50;99.90
17740;DHT22;8990;33.226;-97.150;2022-07-29T14:46:15;33.50;99.90
17740;DHT22;8990;33.226;-97.150;2022-07-29T14:48:46;33.50;99.90
17740;DHT22;8990;33.226;-97.150;2022-07-29T14:51:16;33.60;99.90
17740;DHT22;8990;33.226;-97.150;2022-07-29T14:53:45;33.60;99.90
17740;DHT22;8990;33.226;-97.150;2022-07-29T14:56:15;33.50;99.90
17740;DHT22;8990;33.226;-97.150;2022-07-29T14:58:44;33.60;99.90
17740;DHT22;8990;33.226;-97.150;2022-07-29T15:01:14;33.70;99.90
17740;DHT22;8990;33.226;-97.150;2022-07-29T15:03:46;33.80;99.90
17740;DHT22;8990;33.226;-97.150;2022-07-29T15:06:16;34.00;99.90
17740;DHT22;8990;33.226;-97.150;2022-07-29T15:08:46;33.90;99.90
17740;DHT22;8990;33.226;-97.150;2022-07-29T15:11:16;34.00;99.90
17740;DHT22;8990;33.226;-97.150;2022-07-29T15:13:45;34.20;99.90
17740;DHT22;8990;33.226;-97.150;2022-07-29T15:16:15;34.20;99.90
17740;DHT22;8990;33.226;-97.150;2022-07-29T15:18:45;34.20;99.90
17740;DHT22;8990;33.226;-97.150;2022-07-29T15:21:15;34.30;99.90
17740;DHT22;8990;33.226;-97.150;2022-07-29T15:23:44;34.50;99.90
17740;DHT22;8990;33.226;-97.150;2022-07-29T15:26:13;34.50;99.90
17740;DHT22;8990;33.226;-97.150;2022-07-29T15:28:42;34.50;99.90
17740;DHT22;8990;33.226;-97.150;2022-07-29T15:31:11;34.50;99.90
17740;DHT22;8990;33.226;-97.150;2022-07-29T15:33:44;34.40;99.90
17740;DHT22;8990;33.226;-97.150;2022-07-29T15:36:13;34.30;99.90
17740;DHT22;8990;33.226;-97.150;2022-07-29T15:38:43;34.30;99.90
17740;DHT22;8990;33.226;-97.150;2022-07-29T15:41:14;34.30;99.90
17740;DHT22;8990;33.226;-97.150;2022-07-29T15:43:44;34.40;99.90